JAL526 RJCC-RJTT
Flight info
| Callsign | JAL526 |
|---|---|
| Flight time | 1h 21m |
| Altitude | 36000 |
| Route | TOBBY Y10 GODIN |
| Aircraft | A359/H-SDE2E3GHIJ1J3J4J5LM1ORWXYZ/LB1D1 |
Departure
| Time | 2026-05-01 11:27 |
|---|---|
| Airport | New Chitose Airport (RJCC) |
Arrival
| Time | 2026-05-01 12:48 |
|---|---|
| Airport | Tokyo Haneda International Airport (RJTT) |
| Time | Latitude | Longitude | Altitude | Speed | Heading |
|---|---|---|---|---|---|
| 2026-05-01 10:15 | 42.78608 | 141.68246 | 94 ft | 0 kts | 296° |
| 2026-05-01 11:17 | 42.78604 | 141.68257 | 97 ft | 3 kts | 296° |
| 2026-05-01 11:18 | 42.78595 | 141.68281 | 94 ft | 3 kts | 296° |
| 2026-05-01 11:18 | 42.78586 | 141.68304 | 93 ft | 3 kts | 297° |
| 2026-05-01 11:18 | 42.78577 | 141.68327 | 93 ft | 3 kts | 312° |
| 2026-05-01 11:18 | 42.78565 | 141.68342 | 94 ft | 3 kts | 337° |
| 2026-05-01 11:19 | 42.78550 | 141.68349 | 93 ft | 3 kts | 7° |
| 2026-05-01 11:19 | 42.78533 | 141.68343 | 94 ft | 3 kts | 28° |
| 2026-05-01 11:19 | 42.78520 | 141.68333 | 94 ft | 1 kts | 33° |
| 2026-05-01 11:19 | 42.78519 | 141.68332 | 94 ft | 0 kts | 33° |
| 2026-05-01 11:22 | 42.78520 | 141.68333 | 94 ft | 1 kts | 33° |
| 2026-05-01 11:22 | 42.78546 | 141.68354 | 93 ft | 7 kts | 29° |
| 2026-05-01 11:22 | 42.78593 | 141.68380 | 94 ft | 7 kts | 18° |
| 2026-05-01 11:22 | 42.78641 | 141.68399 | 93 ft | 7 kts | 14° |
| 2026-05-01 11:23 | 42.78691 | 141.68411 | 95 ft | 7 kts | 8° |
| 2026-05-01 11:23 | 42.78744 | 141.68420 | 93 ft | 8 kts | 8° |
| 2026-05-01 11:23 | 42.78785 | 141.68451 | 95 ft | 6 kts | 56° |
| 2026-05-01 11:23 | 42.78795 | 141.68492 | 95 ft | 3 kts | 76° |
| 2026-05-01 11:24 | 42.78798 | 141.68516 | 97 ft | 3 kts | 82° |
| 2026-05-01 11:24 | 42.78800 | 141.68539 | 97 ft | 2 kts | 83° |
| 2026-05-01 11:24 | 42.78804 | 141.68579 | 98 ft | 3 kts | 83° |
| 2026-05-01 11:25 | 42.78810 | 141.68640 | 98 ft | 11 kts | 82° |
| 2026-05-01 11:25 | 42.78810 | 141.68809 | 99 ft | 5 kts | 135° |
| 2026-05-01 11:25 | 42.78780 | 141.68823 | 96 ft | 5 kts | 172° |
| 2026-05-01 11:26 | 42.78741 | 141.68828 | 98 ft | 6 kts | 172° |
| 2026-05-01 11:26 | 42.77908 | 141.68977 | 93 ft | 143 kts | 173° |
| 2026-05-01 11:26 | 42.76752 | 141.69145 | 666 ft | 171 kts | 169° |
| 2026-05-01 11:27 | 42.75571 | 141.69364 | 1653 ft | 164 kts | 169° |
| 2026-05-01 11:27 | 42.74545 | 141.69601 | 2572 ft | 145 kts | 169° |
| 2026-05-01 11:27 | 42.73512 | 141.69827 | 2988 ft | 159 kts | 169° |
| 2026-05-01 11:27 | 42.72352 | 141.70073 | 3279 ft | 178 kts | 169° |
| 2026-05-01 11:28 | 42.71484 | 141.70254 | 3438 ft | 195 kts | 169° |
| 2026-05-01 11:28 | 42.70077 | 141.70544 | 3783 ft | 215 kts | 170° |
| 2026-05-01 11:28 | 42.68538 | 141.70852 | 4218 ft | 230 kts | 171° |
| 2026-05-01 11:29 | 42.65256 | 141.71502 | 5346 ft | 247 kts | 171° |
| 2026-05-01 11:29 | 42.63527 | 141.71846 | 5926 ft | 254 kts | 172° |
| 2026-05-01 11:29 | 42.59951 | 141.72203 | 7202 ft | 261 kts | 177° |
| 2026-05-01 11:30 | 42.58124 | 141.72304 | 7840 ft | 264 kts | 177° |
| 2026-05-01 11:30 | 42.56274 | 141.72406 | 8457 ft | 268 kts | 176° |
| 2026-05-01 11:30 | 42.54390 | 141.72511 | 9083 ft | 273 kts | 177° |
| 2026-05-01 11:30 | 42.52484 | 141.72615 | 9747 ft | 274 kts | 176° |
| 2026-05-01 11:31 | 42.50572 | 141.72717 | 10304 ft | 280 kts | 177° |
| 2026-05-01 11:31 | 42.48579 | 141.72829 | 10588 ft | 294 kts | 177° |
| 2026-05-01 11:31 | 42.46483 | 141.72947 | 10861 ft | 308 kts | 177° |
| 2026-05-01 11:31 | 42.44291 | 141.73069 | 11118 ft | 321 kts | 177° |
| 2026-05-01 11:32 | 42.42018 | 141.73197 | 11480 ft | 330 kts | 177° |
| 2026-05-01 11:32 | 42.39716 | 141.73325 | 11987 ft | 333 kts | 178° |
| 2026-05-01 11:32 | 42.37379 | 141.73454 | 12482 ft | 337 kts | 178° |
| 2026-05-01 11:32 | 42.35039 | 141.73584 | 13012 ft | 338 kts | 178° |
| 2026-05-01 11:33 | 42.32674 | 141.73714 | 13504 ft | 340 kts | 178° |
| 2026-05-01 11:33 | 42.30300 | 141.73856 | 13934 ft | 343 kts | 178° |
| 2026-05-01 11:33 | 42.27909 | 141.73995 | 14359 ft | 346 kts | 178° |
| 2026-05-01 11:33 | 42.25495 | 141.74124 | 14802 ft | 348 kts | 178° |
| 2026-05-01 11:34 | 42.23073 | 141.74273 | 15227 ft | 350 kts | 179° |
| 2026-05-01 11:34 | 42.20627 | 141.74406 | 15661 ft | 353 kts | 179° |
| 2026-05-01 11:34 | 42.18155 | 141.74536 | 16083 ft | 356 kts | 179° |
| 2026-05-01 11:34 | 42.15671 | 141.74671 | 16503 ft | 359 kts | 179° |
| 2026-05-01 11:35 | 42.13198 | 141.74804 | 16922 ft | 361 kts | 179° |
| 2026-05-01 11:35 | 42.10673 | 141.74946 | 17333 ft | 364 kts | 179° |
| 2026-05-01 11:35 | 42.08128 | 141.75090 | 17741 ft | 367 kts | 179° |
| 2026-05-01 11:35 | 42.05566 | 141.75220 | 18111 ft | 369 kts | 181° |
| 2026-05-01 11:36 | 42.03005 | 141.75030 | 18470 ft | 370 kts | 187° |
| 2026-05-01 11:36 | 42.00441 | 141.74587 | 18845 ft | 372 kts | 190° |
| 2026-05-01 11:36 | 41.97871 | 141.74008 | 19220 ft | 374 kts | 191° |
| 2026-05-01 11:36 | 41.95312 | 141.73357 | 19594 ft | 375 kts | 192° |
| 2026-05-01 11:37 | 41.92750 | 141.72681 | 19961 ft | 377 kts | 192° |
| 2026-05-01 11:37 | 41.90157 | 141.72007 | 20312 ft | 380 kts | 192° |
| 2026-05-01 11:37 | 41.87550 | 141.71342 | 20667 ft | 382 kts | 192° |
| 2026-05-01 11:37 | 41.84929 | 141.70682 | 21023 ft | 384 kts | 192° |
| 2026-05-01 11:38 | 41.82286 | 141.70024 | 21373 ft | 387 kts | 192° |
| 2026-05-01 11:38 | 41.79635 | 141.69370 | 21721 ft | 389 kts | 191° |
| 2026-05-01 11:38 | 41.76963 | 141.68713 | 22073 ft | 391 kts | 191° |
| 2026-05-01 11:38 | 41.74279 | 141.68055 | 22428 ft | 393 kts | 191° |
| 2026-05-01 11:39 | 41.71578 | 141.67394 | 22761 ft | 395 kts | 191° |
| 2026-05-01 11:39 | 41.68865 | 141.66730 | 23083 ft | 397 kts | 192° |
| 2026-05-01 11:39 | 41.66170 | 141.66071 | 23368 ft | 399 kts | 192° |
| 2026-05-01 11:39 | 41.63438 | 141.65403 | 23674 ft | 400 kts | 192° |
| 2026-05-01 11:40 | 41.60664 | 141.64725 | 23978 ft | 400 kts | 192° |
| 2026-05-01 11:40 | 41.57957 | 141.64063 | 24290 ft | 401 kts | 192° |
| 2026-05-01 11:40 | 41.55170 | 141.63383 | 24597 ft | 402 kts | 192° |
| 2026-05-01 11:40 | 41.52453 | 141.62721 | 24910 ft | 403 kts | 192° |
| 2026-05-01 11:41 | 41.49689 | 141.62054 | 25216 ft | 404 kts | 192° |
| 2026-05-01 11:41 | 41.46928 | 141.61384 | 25426 ft | 402 kts | 192° |
| 2026-05-01 11:41 | 41.44209 | 141.60723 | 25468 ft | 398 kts | 192° |
| 2026-05-01 11:41 | 41.41427 | 141.60041 | 25458 ft | 415 kts | 192° |
| 2026-05-01 11:42 | 41.38525 | 141.59328 | 25457 ft | 431 kts | 192° |
| 2026-05-01 11:42 | 41.35552 | 141.58602 | 25451 ft | 437 kts | 192° |
| 2026-05-01 11:42 | 41.32554 | 141.57875 | 25450 ft | 438 kts | 192° |
| 2026-05-01 11:42 | 41.29560 | 141.57152 | 25444 ft | 437 kts | 192° |
| 2026-05-01 11:43 | 41.26566 | 141.56430 | 25440 ft | 437 kts | 192° |
| 2026-05-01 11:43 | 41.23575 | 141.55710 | 25437 ft | 436 kts | 192° |
| 2026-05-01 11:43 | 41.20584 | 141.54989 | 25435 ft | 436 kts | 192° |
| 2026-05-01 11:44 | 41.14618 | 141.53552 | 25433 ft | 435 kts | 192° |
| 2026-05-01 11:44 | 41.11639 | 141.52835 | 25426 ft | 435 kts | 192° |
| 2026-05-01 11:44 | 41.08663 | 141.52119 | 25425 ft | 435 kts | 192° |
| 2026-05-01 11:44 | 41.05684 | 141.51403 | 25421 ft | 434 kts | 192° |
| 2026-05-01 11:45 | 41.02717 | 141.50691 | 25419 ft | 434 kts | 192° |
| 2026-05-01 11:45 | 40.99746 | 141.49978 | 25418 ft | 433 kts | 192° |
| 2026-05-01 11:45 | 40.96775 | 141.49265 | 25422 ft | 433 kts | 192° |
| 2026-05-01 11:45 | 40.93847 | 141.48564 | 25422 ft | 433 kts | 192° |
| 2026-05-01 11:46 | 40.90880 | 141.47854 | 25424 ft | 432 kts | 192° |
| 2026-05-01 11:46 | 40.87926 | 141.47148 | 25427 ft | 432 kts | 192° |
| 2026-05-01 11:46 | 40.84967 | 141.46442 | 25433 ft | 432 kts | 192° |
| 2026-05-01 11:46 | 40.82009 | 141.45736 | 25432 ft | 431 kts | 192° |
| 2026-05-01 11:47 | 40.79056 | 141.45032 | 25442 ft | 431 kts | 192° |
| 2026-05-01 11:47 | 40.76114 | 141.44331 | 25437 ft | 430 kts | 192° |
| 2026-05-01 11:47 | 40.73177 | 141.43632 | 25448 ft | 430 kts | 191° |
| 2026-05-01 11:47 | 40.70233 | 141.42932 | 25448 ft | 429 kts | 191° |
| 2026-05-01 11:48 | 40.67293 | 141.42233 | 25436 ft | 428 kts | 191° |
| 2026-05-01 11:48 | 40.64359 | 141.41537 | 25450 ft | 428 kts | 191° |
| 2026-05-01 11:48 | 40.61427 | 141.40842 | 25444 ft | 428 kts | 191° |
| 2026-05-01 11:48 | 40.58493 | 141.40147 | 25439 ft | 427 kts | 191° |
| 2026-05-01 11:49 | 40.55572 | 141.39456 | 25424 ft | 427 kts | 191° |
| 2026-05-01 11:49 | 40.52644 | 141.38764 | 25423 ft | 427 kts | 191° |
| 2026-05-01 11:49 | 40.49728 | 141.38075 | 25416 ft | 426 kts | 191° |
| 2026-05-01 11:49 | 40.46808 | 141.37386 | 25397 ft | 426 kts | 191° |
| 2026-05-01 11:50 | 40.43920 | 141.36706 | 25399 ft | 426 kts | 191° |
| 2026-05-01 11:50 | 40.41017 | 141.36022 | 25390 ft | 425 kts | 191° |
| 2026-05-01 11:50 | 40.38093 | 141.35334 | 25377 ft | 425 kts | 191° |
| 2026-05-01 11:50 | 40.35181 | 141.34650 | 25369 ft | 424 kts | 191° |
| 2026-05-01 11:51 | 40.32277 | 141.33968 | 25367 ft | 424 kts | 191° |
| 2026-05-01 11:51 | 40.29373 | 141.33286 | 25363 ft | 424 kts | 191° |
| 2026-05-01 11:51 | 40.26475 | 141.32606 | 25372 ft | 424 kts | 191° |
| 2026-05-01 11:51 | 40.23575 | 141.31926 | 25364 ft | 423 kts | 191° |
| 2026-05-01 11:52 | 40.20683 | 141.31249 | 25366 ft | 422 kts | 191° |
| 2026-05-01 11:52 | 40.17789 | 141.30573 | 25366 ft | 422 kts | 191° |
| 2026-05-01 11:52 | 40.14904 | 141.29899 | 25367 ft | 421 kts | 191° |
| 2026-05-01 11:52 | 40.12024 | 141.29225 | 25363 ft | 421 kts | 191° |
| 2026-05-01 11:53 | 40.09161 | 141.28555 | 25363 ft | 420 kts | 191° |
| 2026-05-01 11:53 | 40.06277 | 141.27882 | 25363 ft | 420 kts | 191° |
| 2026-05-01 11:53 | 40.03433 | 141.27220 | 25370 ft | 420 kts | 191° |
| 2026-05-01 11:53 | 40.00431 | 141.26523 | 25365 ft | 419 kts | 191° |
| 2026-05-01 11:54 | 39.97476 | 141.25846 | 25362 ft | 419 kts | 191° |
| 2026-05-01 11:54 | 39.94570 | 141.25174 | 25366 ft | 418 kts | 191° |
| 2026-05-01 11:54 | 39.91702 | 141.24506 | 25369 ft | 418 kts | 191° |
| 2026-05-01 11:54 | 39.88851 | 141.23842 | 25369 ft | 417 kts | 191° |
| 2026-05-01 11:55 | 39.86017 | 141.23184 | 25384 ft | 416 kts | 190° |
| 2026-05-01 11:55 | 39.83134 | 141.22508 | 25373 ft | 413 kts | 190° |
| 2026-05-01 11:55 | 39.80318 | 141.21846 | 25375 ft | 412 kts | 190° |
| 2026-05-01 11:55 | 39.77494 | 141.21193 | 25373 ft | 411 kts | 190° |
| 2026-05-01 11:56 | 39.75629 | 141.20765 | 25374 ft | 411 kts | 189° |
| 2026-05-01 11:56 | 39.71903 | 141.19911 | 25377 ft | 410 kts | 189° |
| 2026-05-01 11:56 | 39.69102 | 141.19269 | 25375 ft | 409 kts | 189° |
| 2026-05-01 11:56 | 39.66301 | 141.18625 | 25375 ft | 409 kts | 189° |
| 2026-05-01 11:57 | 39.63503 | 141.17982 | 25373 ft | 408 kts | 189° |
| 2026-05-01 11:57 | 39.61613 | 141.17547 | 25375 ft | 408 kts | 189° |
| 2026-05-01 11:57 | 39.58820 | 141.16905 | 25377 ft | 408 kts | 189° |
| 2026-05-01 11:57 | 39.55085 | 141.16046 | 25380 ft | 407 kts | 189° |
| 2026-05-01 11:58 | 39.53234 | 141.15621 | 25381 ft | 407 kts | 189° |
| 2026-05-01 11:58 | 39.50445 | 141.14981 | 25383 ft | 407 kts | 189° |
| 2026-05-01 11:58 | 39.44871 | 141.13705 | 25382 ft | 407 kts | 189° |
| 2026-05-01 11:59 | 39.42087 | 141.13066 | 25383 ft | 406 kts | 190° |
| 2026-05-01 11:59 | 39.39315 | 141.12327 | 25384 ft | 406 kts | 192° |
| 2026-05-01 11:59 | 39.36561 | 141.11481 | 25383 ft | 406 kts | 193° |
| 2026-05-01 12:00 | 39.31071 | 141.09715 | 25383 ft | 405 kts | 193° |
| 2026-05-01 12:00 | 39.28332 | 141.08849 | 25384 ft | 405 kts | 192° |
| 2026-05-01 12:00 | 39.22858 | 141.07167 | 25377 ft | 404 kts | 192° |
| 2026-05-01 12:01 | 39.20117 | 141.06340 | 25383 ft | 404 kts | 192° |
| 2026-05-01 12:01 | 39.17414 | 141.05529 | 25388 ft | 404 kts | 192° |
| 2026-05-01 12:01 | 39.14682 | 141.04711 | 25396 ft | 403 kts | 192° |
| 2026-05-01 12:01 | 39.11936 | 141.03889 | 25387 ft | 403 kts | 192° |
| 2026-05-01 12:02 | 39.09204 | 141.03072 | 25383 ft | 403 kts | 192° |
| 2026-05-01 12:02 | 39.06475 | 141.02255 | 25384 ft | 403 kts | 192° |
| 2026-05-01 12:02 | 39.03738 | 141.01436 | 25382 ft | 403 kts | 192° |
| 2026-05-01 12:02 | 39.00999 | 141.00617 | 25376 ft | 403 kts | 192° |
| 2026-05-01 12:03 | 38.98266 | 140.99800 | 25382 ft | 403 kts | 192° |
| 2026-05-01 12:03 | 38.95536 | 140.98985 | 25385 ft | 403 kts | 192° |
| 2026-05-01 12:03 | 38.92806 | 140.98171 | 25382 ft | 403 kts | 192° |
| 2026-05-01 12:03 | 38.90071 | 140.97355 | 25380 ft | 403 kts | 192° |
| 2026-05-01 12:04 | 38.87342 | 140.96543 | 25376 ft | 403 kts | 192° |
| 2026-05-01 12:04 | 38.84614 | 140.95731 | 25379 ft | 402 kts | 192° |
| 2026-05-01 12:04 | 38.81919 | 140.94929 | 25379 ft | 402 kts | 192° |
| 2026-05-01 12:04 | 38.79198 | 140.94120 | 25379 ft | 402 kts | 192° |
| 2026-05-01 12:05 | 38.76475 | 140.93312 | 25381 ft | 401 kts | 192° |
| 2026-05-01 12:05 | 38.71034 | 140.91706 | 25380 ft | 401 kts | 192° |
| 2026-05-01 12:05 | 38.68316 | 140.90899 | 25380 ft | 401 kts | 192° |
| 2026-05-01 12:06 | 38.65599 | 140.90093 | 25378 ft | 401 kts | 191° |
| 2026-05-01 12:06 | 38.62882 | 140.89287 | 25375 ft | 401 kts | 191° |
| 2026-05-01 12:06 | 38.60165 | 140.88483 | 25381 ft | 401 kts | 191° |
| 2026-05-01 12:06 | 38.57445 | 140.87679 | 25380 ft | 401 kts | 191° |
| 2026-05-01 12:07 | 38.54720 | 140.86875 | 25380 ft | 401 kts | 191° |
| 2026-05-01 12:07 | 38.52011 | 140.86074 | 25383 ft | 401 kts | 191° |
| 2026-05-01 12:07 | 38.49293 | 140.85273 | 25379 ft | 401 kts | 191° |
| 2026-05-01 12:07 | 38.46563 | 140.84469 | 25375 ft | 402 kts | 191° |
| 2026-05-01 12:08 | 38.43841 | 140.83669 | 25382 ft | 402 kts | 191° |
| 2026-05-01 12:08 | 38.41106 | 140.82865 | 25379 ft | 402 kts | 191° |
| 2026-05-01 12:08 | 38.38380 | 140.82065 | 25384 ft | 402 kts | 191° |
| 2026-05-01 12:08 | 38.35652 | 140.81264 | 25384 ft | 403 kts | 191° |
| 2026-05-01 12:09 | 38.32914 | 140.80461 | 25387 ft | 403 kts | 191° |
| 2026-05-01 12:09 | 38.30179 | 140.79660 | 25386 ft | 403 kts | 191° |
| 2026-05-01 12:09 | 38.27440 | 140.78858 | 25387 ft | 404 kts | 191° |
| 2026-05-01 12:09 | 38.24703 | 140.78057 | 25387 ft | 404 kts | 191° |
| 2026-05-01 12:10 | 38.21959 | 140.77258 | 25387 ft | 405 kts | 191° |
| 2026-05-01 12:10 | 38.16454 | 140.75655 | 25389 ft | 406 kts | 191° |
| 2026-05-01 12:10 | 38.13704 | 140.74849 | 25388 ft | 406 kts | 191° |
| 2026-05-01 12:11 | 38.08220 | 140.73248 | 25387 ft | 407 kts | 191° |
| 2026-05-01 12:11 | 38.05449 | 140.72441 | 25394 ft | 407 kts | 191° |
| 2026-05-01 12:11 | 38.02685 | 140.71637 | 25395 ft | 408 kts | 192° |
| 2026-05-01 12:12 | 37.99915 | 140.70833 | 25393 ft | 409 kts | 192° |
| 2026-05-01 12:12 | 37.97140 | 140.70027 | 25390 ft | 410 kts | 191° |
| 2026-05-01 12:12 | 37.94358 | 140.69227 | 25394 ft | 410 kts | 191° |
| 2026-05-01 12:12 | 37.91524 | 140.68811 | 25395 ft | 411 kts | 181° |
| 2026-05-01 12:13 | 37.88671 | 140.69100 | 25392 ft | 412 kts | 173° |
| 2026-05-01 12:13 | 37.85841 | 140.69682 | 25390 ft | 413 kts | 172° |
| 2026-05-01 12:13 | 37.83004 | 140.70301 | 25397 ft | 414 kts | 172° |
| 2026-05-01 12:13 | 37.80165 | 140.70926 | 25389 ft | 414 kts | 172° |
| 2026-05-01 12:14 | 37.77316 | 140.71559 | 25391 ft | 415 kts | 172° |
| 2026-05-01 12:14 | 37.74509 | 140.72183 | 25392 ft | 415 kts | 172° |
| 2026-05-01 12:14 | 37.71627 | 140.72825 | 25391 ft | 415 kts | 172° |
| 2026-05-01 12:14 | 37.68818 | 140.73449 | 25388 ft | 415 kts | 172° |
| 2026-05-01 12:15 | 37.65970 | 140.74082 | 25393 ft | 415 kts | 172° |
| 2026-05-01 12:15 | 37.63126 | 140.74711 | 25391 ft | 415 kts | 172° |
| 2026-05-01 12:15 | 37.60273 | 140.75341 | 25395 ft | 415 kts | 172° |
| 2026-05-01 12:15 | 37.57428 | 140.75967 | 25397 ft | 416 kts | 172° |
| 2026-05-01 12:16 | 37.54573 | 140.76596 | 25396 ft | 416 kts | 172° |
| 2026-05-01 12:16 | 37.51723 | 140.77223 | 25397 ft | 416 kts | 172° |
| 2026-05-01 12:16 | 37.48871 | 140.77853 | 25395 ft | 416 kts | 172° |
| 2026-05-01 12:16 | 37.46025 | 140.78487 | 25400 ft | 416 kts | 172° |
| 2026-05-01 12:17 | 37.43169 | 140.79121 | 25400 ft | 416 kts | 172° |
| 2026-05-01 12:17 | 37.40295 | 140.79487 | 25406 ft | 415 kts | 180° |
| 2026-05-01 12:17 | 37.37413 | 140.79143 | 25416 ft | 415 kts | 190° |
| 2026-05-01 12:17 | 37.34587 | 140.78425 | 25412 ft | 416 kts | 191° |
| 2026-05-01 12:18 | 37.31784 | 140.77489 | 25423 ft | 418 kts | 197° |
| 2026-05-01 12:18 | 37.29078 | 140.76124 | 25428 ft | 419 kts | 202° |
| 2026-05-01 12:18 | 37.26443 | 140.74543 | 25435 ft | 421 kts | 205° |
| 2026-05-01 12:18 | 37.23844 | 140.72856 | 25439 ft | 422 kts | 206° |
| 2026-05-01 12:19 | 37.21248 | 140.71109 | 25443 ft | 423 kts | 206° |
| 2026-05-01 12:19 | 37.18659 | 140.69351 | 25443 ft | 423 kts | 206° |
| 2026-05-01 12:19 | 37.16097 | 140.67617 | 25448 ft | 424 kts | 206° |
| 2026-05-01 12:19 | 37.13496 | 140.65868 | 25449 ft | 425 kts | 206° |
| 2026-05-01 12:20 | 37.10885 | 140.64124 | 25447 ft | 425 kts | 206° |
| 2026-05-01 12:20 | 37.08266 | 140.62384 | 25446 ft | 426 kts | 206° |
| 2026-05-01 12:20 | 37.05643 | 140.60648 | 25449 ft | 427 kts | 206° |
| 2026-05-01 12:20 | 37.02979 | 140.58889 | 25263 ft | 427 kts | 207° |
| 2026-05-01 12:21 | 37.00383 | 140.57178 | 24874 ft | 427 kts | 207° |
| 2026-05-01 12:21 | 36.97753 | 140.55445 | 24330 ft | 427 kts | 207° |
| 2026-05-01 12:21 | 36.95128 | 140.53717 | 23731 ft | 424 kts | 207° |
| 2026-05-01 12:21 | 36.92527 | 140.52004 | 23135 ft | 420 kts | 208° |
| 2026-05-01 12:22 | 36.89954 | 140.50310 | 22453 ft | 416 kts | 208° |
| 2026-05-01 12:22 | 36.87403 | 140.48631 | 21754 ft | 413 kts | 208° |
| 2026-05-01 12:22 | 36.84865 | 140.46962 | 21065 ft | 409 kts | 208° |
| 2026-05-01 12:22 | 36.82354 | 140.45312 | 20402 ft | 406 kts | 208° |
| 2026-05-01 12:23 | 36.79864 | 140.43677 | 19746 ft | 402 kts | 208° |
| 2026-05-01 12:23 | 36.77395 | 140.42058 | 19108 ft | 399 kts | 208° |
| 2026-05-01 12:23 | 36.74951 | 140.40456 | 18487 ft | 396 kts | 208° |
| 2026-05-01 12:23 | 36.72521 | 140.38864 | 17869 ft | 393 kts | 208° |
| 2026-05-01 12:24 | 36.70076 | 140.37264 | 17192 ft | 390 kts | 208° |
| 2026-05-01 12:24 | 36.67684 | 140.35701 | 16500 ft | 386 kts | 208° |
| 2026-05-01 12:24 | 36.65334 | 140.34184 | 15840 ft | 383 kts | 207° |
| 2026-05-01 12:24 | 36.62865 | 140.32968 | 15263 ft | 379 kts | 197° |
| 2026-05-01 12:25 | 36.60326 | 140.32248 | 14851 ft | 370 kts | 192° |
| 2026-05-01 12:25 | 36.55351 | 140.31179 | 14068 ft | 357 kts | 191° |
| 2026-05-01 12:25 | 36.52905 | 140.30678 | 13682 ft | 355 kts | 191° |
| 2026-05-01 12:26 | 36.50480 | 140.30186 | 13301 ft | 353 kts | 191° |
| 2026-05-01 12:26 | 36.45665 | 140.29121 | 12459 ft | 346 kts | 197° |
| 2026-05-01 12:26 | 36.43443 | 140.28048 | 12043 ft | 341 kts | 210° |
| 2026-05-01 12:27 | 36.41533 | 140.26410 | 11643 ft | 335 kts | 223° |
| 2026-05-01 12:27 | 36.38944 | 140.21929 | 10953 ft | 301 kts | 247° |
| 2026-05-01 12:28 | 36.38132 | 140.17201 | 10448 ft | 271 kts | 264° |
| 2026-05-01 12:28 | 36.37959 | 140.14891 | 10194 ft | 266 kts | 261° |
| 2026-05-01 12:28 | 36.36786 | 140.10608 | 9706 ft | 264 kts | 238° |
| 2026-05-01 12:29 | 36.35503 | 140.08968 | 9475 ft | 269 kts | 219° |
| 2026-05-01 12:29 | 36.33770 | 140.08049 | 9222 ft | 277 kts | 196° |
| 2026-05-01 12:29 | 36.29886 | 140.07791 | 8695 ft | 276 kts | 199° |
| 2026-05-01 12:30 | 36.26092 | 140.07078 | 8171 ft | 281 kts | 186° |
| 2026-05-01 12:30 | 36.24140 | 140.07167 | 7977 ft | 280 kts | 185° |
| 2026-05-01 12:30 | 36.22192 | 140.07286 | 7953 ft | 281 kts | 185° |
| 2026-05-01 12:31 | 36.20240 | 140.07408 | 7945 ft | 281 kts | 185° |
| 2026-05-01 12:31 | 36.18290 | 140.07530 | 7950 ft | 280 kts | 185° |
| 2026-05-01 12:31 | 36.16336 | 140.07652 | 7949 ft | 280 kts | 185° |
| 2026-05-01 12:31 | 36.14384 | 140.07773 | 7949 ft | 281 kts | 185° |
| 2026-05-01 12:32 | 36.12434 | 140.07895 | 7904 ft | 282 kts | 185° |
| 2026-05-01 12:32 | 36.08529 | 140.08143 | 7503 ft | 280 kts | 185° |
| 2026-05-01 12:32 | 36.06573 | 140.08268 | 7312 ft | 280 kts | 185° |
| 2026-05-01 12:33 | 36.04622 | 140.08392 | 7110 ft | 280 kts | 185° |
| 2026-05-01 12:33 | 36.02675 | 140.08516 | 6910 ft | 280 kts | 185° |
| 2026-05-01 12:33 | 36.00726 | 140.08640 | 6714 ft | 280 kts | 185° |
| 2026-05-01 12:33 | 35.98778 | 140.08762 | 6514 ft | 280 kts | 185° |
| 2026-05-01 12:34 | 35.96834 | 140.08886 | 6318 ft | 279 kts | 185° |
| 2026-05-01 12:34 | 35.94921 | 140.09008 | 6117 ft | 279 kts | 185° |
| 2026-05-01 12:34 | 35.92986 | 140.09131 | 5931 ft | 278 kts | 185° |
| 2026-05-01 12:34 | 35.91053 | 140.09252 | 5733 ft | 278 kts | 185° |
| 2026-05-01 12:35 | 35.89139 | 140.09372 | 5529 ft | 278 kts | 184° |
| 2026-05-01 12:35 | 35.87205 | 140.09493 | 5319 ft | 278 kts | 184° |
| 2026-05-01 12:35 | 35.85284 | 140.09615 | 5170 ft | 277 kts | 184° |
| 2026-05-01 12:35 | 35.83357 | 140.09737 | 5041 ft | 276 kts | 184° |
| 2026-05-01 12:36 | 35.81441 | 140.09882 | 4913 ft | 277 kts | 181° |
| 2026-05-01 12:36 | 35.79540 | 140.10418 | 4792 ft | 283 kts | 167° |
| 2026-05-01 12:36 | 35.77683 | 140.11246 | 4664 ft | 284 kts | 165° |
| 2026-05-01 12:36 | 35.75838 | 140.12098 | 4539 ft | 283 kts | 166° |
| 2026-05-01 12:37 | 35.73994 | 140.12940 | 4465 ft | 282 kts | 166° |
| 2026-05-01 12:37 | 35.72166 | 140.13829 | 4455 ft | 284 kts | 161° |
| 2026-05-01 12:37 | 35.70518 | 140.15239 | 4466 ft | 292 kts | 143° |
| 2026-05-01 12:37 | 35.69061 | 140.16957 | 4452 ft | 285 kts | 141° |
| 2026-05-01 12:38 | 35.68143 | 140.18074 | 4452 ft | 273 kts | 141° |
| 2026-05-01 12:38 | 35.66415 | 140.20149 | 4447 ft | 252 kts | 144° |
| 2026-05-01 12:38 | 35.65035 | 140.21346 | 4462 ft | 236 kts | 163° |
| 2026-05-01 12:38 | 35.63530 | 140.22081 | 4462 ft | 231 kts | 170° |
| 2026-05-01 12:39 | 35.62502 | 140.22514 | 4461 ft | 231 kts | 171° |
| 2026-05-01 12:39 | 35.60968 | 140.22974 | 4455 ft | 222 kts | 185° |
| 2026-05-01 12:39 | 35.59526 | 140.22642 | 4456 ft | 204 kts | 214° |
| 2026-05-01 12:39 | 35.58481 | 140.21602 | 4260 ft | 189 kts | 237° |
| 2026-05-01 12:40 | 35.57785 | 140.20248 | 3997 ft | 188 kts | 244° |
| 2026-05-01 12:40 | 35.57256 | 140.18771 | 3968 ft | 189 kts | 255° |
| 2026-05-01 12:40 | 35.57106 | 140.17174 | 3967 ft | 188 kts | 268° |
| 2026-05-01 12:40 | 35.57120 | 140.15610 | 3963 ft | 180 kts | 268° |
| 2026-05-01 12:41 | 35.57123 | 140.14083 | 3964 ft | 177 kts | 268° |
| 2026-05-01 12:41 | 35.57121 | 140.12571 | 3948 ft | 177 kts | 268° |
| 2026-05-01 12:41 | 35.57113 | 140.11076 | 3946 ft | 177 kts | 268° |
| 2026-05-01 12:41 | 35.57102 | 140.09534 | 3947 ft | 179 kts | 268° |
| 2026-05-01 12:42 | 35.57090 | 140.08024 | 3933 ft | 179 kts | 268° |
| 2026-05-01 12:42 | 35.57079 | 140.06534 | 3839 ft | 169 kts | 268° |
| 2026-05-01 12:42 | 35.57069 | 140.05110 | 3635 ft | 165 kts | 268° |
| 2026-05-01 12:42 | 35.57061 | 140.03736 | 3438 ft | 158 kts | 267° |
| 2026-05-01 12:43 | 35.57054 | 140.02392 | 3213 ft | 155 kts | 267° |
| 2026-05-01 12:43 | 35.57048 | 140.01087 | 3020 ft | 150 kts | 267° |
| 2026-05-01 12:43 | 35.57043 | 139.99831 | 2837 ft | 145 kts | 267° |
| 2026-05-01 12:43 | 35.57038 | 139.98616 | 2633 ft | 140 kts | 267° |
| 2026-05-01 12:44 | 35.57034 | 139.97443 | 2455 ft | 135 kts | 266° |
| 2026-05-01 12:44 | 35.57030 | 139.96307 | 2288 ft | 134 kts | 266° |
| 2026-05-01 12:44 | 35.57022 | 139.94017 | 1923 ft | 135 kts | 264° |
| 2026-05-01 12:45 | 35.57012 | 139.91743 | 1585 ft | 127 kts | 263° |
| 2026-05-01 12:45 | 35.57009 | 139.90713 | 1408 ft | 113 kts | 262° |
| 2026-05-01 12:45 | 35.57006 | 139.89790 | 1290 ft | 106 kts | 261° |
| 2026-05-01 12:46 | 35.57001 | 139.88877 | 1199 ft | 110 kts | 260° |
| 2026-05-01 12:46 | 35.56997 | 139.87919 | 1103 ft | 114 kts | 261° |
| 2026-05-01 12:46 | 35.56989 | 139.86951 | 966 ft | 113 kts | 261° |
| 2026-05-01 12:46 | 35.56843 | 139.86013 | 852 ft | 111 kts | 250° |
| 2026-05-01 12:47 | 35.56465 | 139.85168 | 771 ft | 116 kts | 233° |
| 2026-05-01 12:47 | 35.55938 | 139.84416 | 570 ft | 115 kts | 227° |
| 2026-05-01 12:47 | 35.55368 | 139.83729 | 461 ft | 117 kts | 225° |
| 2026-05-01 12:47 | 35.54758 | 139.83024 | 319 ft | 123 kts | 226° |
| 2026-05-01 12:48 | 35.54133 | 139.82294 | 124 ft | 123 kts | 226° |
| 2026-05-01 12:48 | 35.53532 | 139.81615 | 59 ft | 100 kts | 222° |
| 2026-05-01 12:48 | 35.53147 | 139.81185 | 49 ft | 50 kts | 222° |
| 2026-05-01 12:48 | 35.52977 | 139.80968 | 47 ft | 27 kts | 238° |
| 2026-05-01 12:49 | 35.52914 | 139.80796 | 50 ft | 15 kts | 248° |
| 2026-05-01 12:49 | 35.52889 | 139.80721 | 46 ft | 4 kts | 248° |
| 2026-05-01 12:49 | 35.52877 | 139.80684 | 46 ft | 5 kts | 248° |
| 2026-05-01 12:49 | 35.52870 | 139.80666 | 48 ft | 3 kts | 248° |
| 2026-05-01 12:50 | 35.52867 | 139.80638 | 52 ft | 3 kts | 271° |
| 2026-05-01 12:50 | 35.52881 | 139.80614 | 50 ft | 7 kts | 318° |
| 2026-05-01 12:50 | 35.52952 | 139.80560 | 49 ft | 15 kts | 330° |
| 2026-05-01 12:50 | 35.53051 | 139.80491 | 47 ft | 18 kts | 330° |
| 2026-05-01 12:51 | 35.53174 | 139.80403 | 50 ft | 23 kts | 329° |
| 2026-05-01 12:51 | 35.53327 | 139.80294 | 43 ft | 28 kts | 330° |
| 2026-05-01 12:51 | 35.53658 | 139.80059 | 28 ft | 11 kts | 330° |
| 2026-05-01 12:52 | 35.53708 | 139.80006 | 27 ft | 10 kts | 291° |
| 2026-05-01 12:52 | 35.53645 | 139.79827 | 28 ft | 14 kts | 240° |
| 2026-05-01 12:52 | 35.53590 | 139.79711 | 30 ft | 18 kts | 240° |
| 2026-05-01 12:53 | 35.53459 | 139.79435 | 26 ft | 21 kts | 239° |
| 2026-05-01 12:53 | 35.53398 | 139.79307 | 31 ft | 11 kts | 239° |
| 2026-05-01 12:53 | 35.53373 | 139.79230 | 29 ft | 11 kts | 265° |
| 2026-05-01 12:54 | 35.53400 | 139.79135 | 26 ft | 14 kts | 304° |
| 2026-05-01 12:54 | 35.53567 | 139.78952 | 27 ft | 19 kts | 320° |
| 2026-05-01 12:54 | 35.53673 | 139.78841 | 26 ft | 20 kts | 319° |
| 2026-05-01 12:55 | 35.53833 | 139.78698 | 28 ft | 15 kts | 330° |
| 2026-05-01 12:55 | 35.53932 | 139.78629 | 28 ft | 18 kts | 330° |
| 2026-05-01 12:55 | 35.54045 | 139.78549 | 27 ft | 20 kts | 330° |
| 2026-05-01 12:56 | 35.54172 | 139.78459 | 28 ft | 22 kts | 330° |
| 2026-05-01 12:56 | 35.54307 | 139.78363 | 27 ft | 24 kts | 329° |
| 2026-05-01 12:56 | 35.54443 | 139.78266 | 27 ft | 18 kts | 330° |
| 2026-05-01 12:56 | 35.54518 | 139.78214 | 27 ft | 7 kts | 330° |
| 2026-05-01 12:57 | 35.54566 | 139.78200 | 28 ft | 7 kts | 15° |
| 2026-05-01 12:57 | 35.54655 | 139.78240 | 30 ft | 7 kts | 341° |
| 2026-05-01 12:57 | 35.54707 | 139.78206 | 30 ft | 7 kts | 331° |
| 2026-05-01 12:58 | 35.54749 | 139.78212 | 30 ft | 7 kts | 38° |
| 2026-05-01 12:58 | 35.54773 | 139.78250 | 30 ft | 4 kts | 53° |
| 2026-05-01 12:58 | 35.54780 | 139.78262 | 30 ft | 0 kts | 53° |
| 2026-05-01 12:59 | 35.54782 | 139.78266 | 30 ft | 0 kts | 53° |